createdAt,value
2022-11-26T00:04:58.474Z,9.70
2022-11-26T00:10:02.335Z,8.63
2022-11-26T00:15:17.038Z,7.40
2022-11-26T00:20:22.009Z,9.03
2022-11-26T00:25:28.086Z,8.37
2022-11-26T00:30:32.642Z,7.47
2022-11-26T00:35:35.850Z,4.17
2022-11-26T00:40:38.949Z,3.97
2022-11-26T00:45:43.828Z,3.63
2022-11-26T00:50:50.181Z,3.47
2022-11-26T00:55:53.326Z,3.60
2022-11-26T01:00:59.576Z,3.00
2022-11-26T01:06:02.760Z,3.33
2022-11-26T01:11:06.621Z,3.37
2022-11-26T01:16:20.163Z,3.07
2022-11-26T01:21:23.814Z,3.60
2022-11-26T01:26:28.977Z,3.07
2022-11-26T01:31:34.268Z,3.17
2022-11-26T01:36:39.156Z,3.40
2022-11-26T01:41:46.597Z,3.07
2022-11-26T01:46:52.159Z,3.10
2022-11-26T01:52:04.105Z,2.80
2022-11-26T01:57:10.926Z,2.87
2022-11-26T02:02:15.504Z,3.13
2022-11-26T02:07:18.718Z,2.63
2022-11-26T02:12:22.214Z,2.60
2022-11-26T02:17:35.219Z,2.83
2022-11-26T02:23:17.445Z,3.27
2022-11-26T02:28:39.539Z,3.37
2022-11-26T02:33:50.716Z,3.37
2022-11-26T02:38:53.796Z,3.67
2022-11-26T02:43:56.993Z,4.00
2022-11-26T02:49:01.601Z,3.57
2022-11-26T02:54:07.660Z,3.20
2022-11-26T02:59:11.966Z,3.27
2022-11-26T03:04:21.020Z,2.97
2022-11-26T03:09:24.731Z,4.40
2022-11-26T03:14:27.819Z,3.10
2022-11-26T03:19:32.336Z,3.23
2022-11-26T03:24:35.864Z,3.60
2022-11-26T03:29:39.115Z,3.10
2022-11-26T03:34:44.040Z,3.10
2022-11-26T03:39:47.163Z,2.97
2022-11-26T03:44:50.416Z,3.30
2022-11-26T03:49:54.903Z,3.50
2022-11-26T03:54:58.032Z,3.53
2022-11-26T04:00:01.165Z,3.50
2022-11-26T04:05:06.521Z,3.00
2022-11-26T04:10:10.774Z,3.00
2022-11-26T04:15:13.841Z,3.53
2022-11-26T04:20:18.587Z,3.00
2022-11-26T04:25:21.708Z,3.30
2022-11-26T04:30:24.890Z,3.57
2022-11-26T04:35:29.386Z,2.87
2022-11-26T04:40:32.485Z,3.30
2022-11-26T04:45:35.639Z,3.00
2022-11-26T04:50:40.117Z,3.40
2022-11-26T04:55:43.512Z,3.10
2022-11-26T05:00:50.642Z,2.80
2022-11-26T05:05:55.847Z,3.60
2022-11-26T05:11:01.425Z,3.67
2022-11-26T05:16:05.166Z,3.60
2022-11-26T05:21:09.801Z,3.63
2022-11-26T05:26:12.955Z,3.57
2022-11-26T05:31:16.286Z,3.40
2022-11-26T05:36:20.795Z,3.40
2022-11-26T05:41:23.899Z,3.20
2022-11-26T05:46:27.297Z,3.90
2022-11-26T05:51:31.775Z,3.37
2022-11-26T05:56:35.093Z,3.30
2022-11-26T06:01:38.385Z,3.53
2022-11-26T06:06:42.863Z,3.37
2022-11-26T06:11:46.083Z,3.33
2022-11-26T06:16:49.212Z,3.50
2022-11-26T06:21:53.711Z,3.63
2022-11-26T06:26:56.845Z,4.03
2022-11-26T06:32:00.086Z,3.40
2022-11-26T06:37:04.670Z,3.40
2022-11-26T06:42:07.825Z,3.90
2022-11-26T06:47:12.455Z,4.83
2022-11-26T06:52:16.986Z,3.90
2022-11-26T06:57:20.085Z,4.30
2022-11-26T07:02:23.289Z,4.90
2022-11-26T07:07:27.975Z,5.20
2022-11-26T07:12:31.124Z,4.93
2022-11-26T07:17:34.219Z,5.07
2022-11-26T07:22:38.659Z,4.50
2022-11-26T07:27:42.138Z,4.90
2022-11-26T07:32:45.356Z,4.70
2022-11-26T07:37:49.797Z,4.10
2022-11-26T07:42:53.463Z,4.20
2022-11-26T07:47:56.700Z,3.73
2022-11-26T07:53:01.249Z,4.50
2022-11-26T07:58:04.328Z,5.40
2022-11-26T08:03:07.411Z,8.23
2022-11-26T08:08:13.168Z,9.50
2022-11-26T08:13:16.250Z,9.07
2022-11-26T08:18:19.339Z,8.20
2022-11-26T08:23:24.041Z,6.37
2022-11-26T08:28:27.120Z,6.10
2022-11-26T08:33:30.291Z,6.27
2022-11-26T08:38:34.892Z,5.50
2022-11-26T08:44:05.610Z,5.53
2022-11-26T08:49:01.767Z,5.87
2022-11-26T08:54:06.505Z,5.50
2022-11-26T08:59:09.692Z,5.40
2022-11-26T09:04:12.939Z,5.53
2022-11-26T09:09:17.979Z,5.23
2022-11-26T09:14:22.946Z,5.90
2022-11-26T09:19:26.444Z,5.67
2022-11-26T09:24:30.968Z,5.27
2022-11-26T09:29:34.057Z,4.90
2022-11-26T09:34:37.398Z,4.93
2022-11-26T09:39:42.062Z,5.47
2022-11-26T09:45:04.194Z,5.20
2022-11-26T09:50:18.559Z,5.00
2022-11-26T09:55:25.804Z,5.40
2022-11-26T10:00:31.030Z,5.40
2022-11-26T10:05:48.430Z,5.33
2022-11-26T10:11:02.516Z,5.63
2022-11-26T10:16:13.938Z,6.17
2022-11-26T10:21:38.069Z,6.97
2022-11-26T10:26:50.554Z,6.53
2022-11-26T10:31:58.575Z,6.83
2022-11-26T10:37:01.807Z,6.90
2022-11-26T10:42:11.525Z,6.60
2022-11-26T10:47:28.820Z,6.80
2022-11-26T10:52:34.756Z,6.30
2022-11-26T10:57:47.650Z,6.63
2022-11-26T11:02:51.023Z,6.90
2022-11-26T11:07:54.976Z,6.83
2022-11-26T11:13:12.899Z,6.80
2022-11-26T11:18:20.544Z,6.90
2022-11-26T11:23:40.339Z,8.20
2022-11-26T11:28:52.664Z,7.87
2022-11-26T11:34:13.620Z,6.10
2022-11-26T11:39:30.446Z,5.37
2022-11-26T11:44:40.234Z,5.73
2022-11-26T11:49:59.620Z,5.20
2022-11-26T11:55:14.833Z,5.63
2022-11-26T12:00:21.243Z,5.23
2022-11-26T12:05:46.431Z,5.70
2022-11-26T12:10:59.221Z,5.60
2022-11-26T12:16:09.761Z,5.70
2022-11-26T12:21:15.143Z,6.60
2022-11-26T12:26:23.868Z,6.30
2022-11-26T12:31:34.257Z,6.97
2022-11-26T12:36:44.900Z,6.67
2022-11-26T12:41:52.891Z,5.53
2022-11-26T12:47:05.640Z,6.07
2022-11-26T12:52:32.477Z,5.30
2022-11-26T12:57:40.959Z,5.47
2022-11-26T13:02:48.832Z,5.30
2022-11-26T13:08:09.059Z,5.87
2022-11-26T13:13:18.930Z,6.03
2022-11-26T13:18:31.738Z,5.70
2022-11-26T13:23:49.528Z,6.30
2022-11-26T13:29:12.447Z,6.17
2022-11-26T13:34:38.505Z,6.20
2022-11-26T13:40:14.546Z,6.90
2022-11-26T13:45:54.484Z,7.37
2022-11-26T13:51:01.690Z,5.97
2022-11-26T13:56:07.167Z,6.03
2022-11-26T14:01:31.220Z,7.10
2022-11-26T14:06:36.615Z,6.23
2022-11-26T14:12:00.799Z,6.67
2022-11-26T14:17:18.537Z,6.20
2022-11-26T14:22:31.188Z,5.80
2022-11-26T14:27:35.786Z,5.83
2022-11-26T14:32:42.816Z,6.00
2022-11-26T14:37:54.703Z,5.60
2022-11-26T14:43:15.515Z,6.20
2022-11-26T14:48:24.901Z,4.83
2022-11-26T14:53:31.923Z,6.17
2022-11-26T14:58:38.901Z,5.00
2022-11-26T15:03:42.249Z,5.70
2022-11-26T15:08:46.739Z,6.27
2022-11-26T15:13:49.855Z,7.93
2022-11-26T15:18:55.048Z,5.90
2022-11-26T15:24:03.332Z,7.20
2022-11-26T15:29:32.818Z,7.33
2022-11-26T15:34:36.076Z,7.17
2022-11-26T15:39:40.521Z,6.40
2022-11-26T15:44:44.070Z,5.67
2022-11-26T15:49:52.024Z,5.00
2022-11-26T15:55:17.673Z,4.07
2022-11-26T16:00:24.034Z,5.43
2022-11-26T16:05:33.923Z,5.60
2022-11-26T16:10:39.609Z,14.37
2022-11-26T16:15:48.683Z,13.40
2022-11-26T16:21:01.379Z,10.73
2022-11-26T16:26:16.147Z,9.73
2022-11-26T16:31:19.917Z,9.37
2022-11-26T16:36:25.631Z,10.30
2022-11-26T16:41:30.064Z,12.10
2022-11-26T16:46:35.439Z,13.17
2022-11-26T16:51:38.654Z,11.20
2022-11-26T16:56:43.566Z,13.67
2022-11-26T17:01:46.861Z,12.57
2022-11-26T17:06:50.046Z,13.73
2022-11-26T17:11:54.471Z,25.37
2022-11-26T17:16:58.311Z,20.73
2022-11-26T17:22:01.423Z,74.47
2022-11-26T17:27:12.372Z,31.23
2022-11-26T17:32:17.160Z,16.53
2022-11-26T17:37:25.369Z,15.60
2022-11-26T17:42:35.020Z,14.03
2022-11-26T17:47:39.718Z,12.33
2022-11-26T17:52:42.817Z,12.87
2022-11-26T17:57:47.297Z,11.40
2022-11-26T18:02:50.580Z,10.30
2022-11-26T18:07:53.798Z,10.87
2022-11-26T18:12:58.501Z,12.20
2022-11-26T18:18:01.580Z,13.30
2022-11-26T18:23:04.702Z,12.30
2022-11-26T18:28:09.191Z,16.97
2022-11-26T18:33:13.953Z,20.20
2022-11-26T18:38:17.035Z,20.83
2022-11-26T18:43:21.667Z,16.83
2022-11-26T18:48:24.788Z,14.37
2022-11-26T18:53:28.463Z,38.20
2022-11-26T18:58:32.917Z,19.63
2022-11-26T19:03:38.696Z,15.27
2022-11-26T19:08:44.695Z,17.77
2022-11-26T19:13:49.671Z,16.40
2022-11-26T19:18:53.059Z,15.40
2022-11-26T19:23:57.747Z,15.30
2022-11-26T19:29:05.064Z,15.00
2022-11-26T19:34:10.312Z,15.97
2022-11-26T19:39:13.438Z,15.57
2022-11-26T19:44:18.049Z,17.97
2022-11-26T19:49:21.145Z,17.17
2022-11-26T19:54:24.508Z,13.17
2022-11-26T19:59:29.023Z,13.47
2022-11-26T20:04:32.180Z,14.07
2022-11-26T20:09:35.430Z,14.17
2022-11-26T20:14:39.904Z,13.93
2022-11-26T20:19:43.149Z,11.77
2022-11-26T20:24:46.373Z,11.50
2022-11-26T20:29:51.017Z,10.97
2022-11-26T20:34:54.207Z,11.77
2022-11-26T20:39:57.564Z,9.67
2022-11-26T20:45:02.082Z,11.40
2022-11-26T20:50:06.713Z,10.50
2022-11-26T20:55:10.738Z,11.37
2022-11-26T21:00:17.491Z,15.00
2022-11-26T21:05:21.441Z,13.43
2022-11-26T21:10:26.394Z,12.50
2022-11-26T21:15:30.854Z,12.93
2022-11-26T21:20:36.334Z,17.87
2022-11-26T21:25:40.839Z,20.40
2022-11-26T21:30:45.350Z,14.43
2022-11-26T21:35:48.472Z,16.30
2022-11-26T21:40:51.656Z,14.77
2022-11-26T21:45:56.199Z,12.97
2022-11-26T21:50:59.779Z,12.00
2022-11-26T21:56:06.768Z,10.53
2022-11-26T22:01:15.952Z,9.33
2022-11-26T22:06:20.660Z,13.23
2022-11-26T22:11:26.212Z,11.07
2022-11-26T22:16:31.592Z,10.40
2022-11-26T22:21:36.612Z,11.00
2022-11-26T22:26:39.878Z,10.37
2022-11-26T22:31:45.014Z,9.73
2022-11-26T22:36:48.199Z,11.43
2022-11-26T22:41:51.503Z,11.17
2022-11-26T22:46:55.967Z,14.77
2022-11-26T22:51:59.154Z,14.27
2022-11-26T22:57:02.514Z,10.13
2022-11-26T23:02:07.049Z,10.40
2022-11-26T23:07:10.240Z,10.90
2022-11-26T23:12:13.396Z,11.30
2022-11-26T23:17:17.939Z,9.77
2022-11-26T23:22:23.208Z,10.43
2022-11-26T23:27:26.327Z,10.67
2022-11-26T23:32:32.428Z,10.93
2022-11-26T23:37:36.293Z,11.03
2022-11-26T23:42:39.376Z,11.80
2022-11-26T23:47:43.908Z,10.67
2022-11-26T23:52:47.028Z,10.57
2022-11-26T23:57:50.116Z,9.67
